createdAt,value
2023-03-30T00:01:02.933Z,14.40
2023-03-30T00:03:30.344Z,14.40
2023-03-30T00:06:02.840Z,14.40
2023-03-30T00:08:29.840Z,14.40
2023-03-30T00:11:05.880Z,14.40
2023-03-30T00:13:35.631Z,14.30
2023-03-30T00:16:03.627Z,14.30
2023-03-30T00:18:30.818Z,14.20
2023-03-30T00:21:03.045Z,14.20
2023-03-30T00:23:30.437Z,14.20
2023-03-30T00:25:57.890Z,14.20
2023-03-30T00:28:26.360Z,14.10
2023-03-30T00:30:53.983Z,14.10
2023-03-30T00:33:30.217Z,14.10
2023-03-30T00:36:00.885Z,14.10
2023-03-30T00:38:27.907Z,14.10
2023-03-30T00:40:57.789Z,14.00
2023-03-30T00:43:27.170Z,14.00
2023-03-30T00:45:57.383Z,14.00
2023-03-30T00:48:37.148Z,13.90
2023-03-30T00:51:10.820Z,13.90
2023-03-30T00:53:49.906Z,13.90
2023-03-30T00:56:19.930Z,13.90
2023-03-30T00:58:47.273Z,13.80
2023-03-30T01:01:25.985Z,13.80
2023-03-30T01:03:53.892Z,13.80
2023-03-30T01:06:24.517Z,13.80
2023-03-30T01:08:54.359Z,13.80
2023-03-30T01:11:21.811Z,13.80
2023-03-30T01:14:01.400Z,13.70
2023-03-30T01:16:37.380Z,13.80
2023-03-30T01:19:16.668Z,13.80
2023-03-30T01:22:13.012Z,13.70
2023-03-30T01:25:07.212Z,13.70
2023-03-30T01:28:05.378Z,13.70
2023-03-30T01:31:25.857Z,13.70
2023-03-30T01:34:19.141Z,13.80
2023-03-30T01:37:08.281Z,13.80
2023-03-30T01:40:00.694Z,13.80
2023-03-30T01:42:39.772Z,13.80
2023-03-30T01:45:36.655Z,13.80
2023-03-30T01:48:17.485Z,13.80
2023-03-30T01:50:52.827Z,13.80
2023-03-30T01:53:31.861Z,13.80
2023-03-30T01:56:27.422Z,13.80
2023-03-30T01:59:14.951Z,13.80
2023-03-30T02:01:43.318Z,13.80
2023-03-30T02:04:12.593Z,13.80
2023-03-30T02:07:04.241Z,13.80
2023-03-30T02:09:33.746Z,13.80
2023-03-30T02:12:02.403Z,13.80
2023-03-30T02:14:33.648Z,13.80
2023-03-30T02:17:07.646Z,13.80
2023-03-30T02:19:34.795Z,13.90
2023-03-30T02:22:01.846Z,13.80
2023-03-30T02:24:31.671Z,13.90
2023-03-30T02:27:02.599Z,13.90
2023-03-30T02:29:29.889Z,13.90
2023-03-30T02:31:59.209Z,13.90
2023-03-30T02:34:47.926Z,13.90
2023-03-30T02:37:53.725Z,13.90
2023-03-30T02:40:49.063Z,13.90
2023-03-30T02:43:28.147Z,13.90
2023-03-30T02:46:16.242Z,13.90
2023-03-30T02:48:59.160Z,13.80
2023-03-30T02:51:32.414Z,13.70
2023-03-30T02:54:05.659Z,13.60
2023-03-30T02:56:51.504Z,13.60
2023-03-30T02:59:36.518Z,13.50
2023-03-30T03:02:22.378Z,13.50
2023-03-30T03:04:52.953Z,13.40
2023-03-30T03:07:21.816Z,13.30
2023-03-30T03:09:49.018Z,13.30
2023-03-30T03:12:16.191Z,13.20
2023-03-30T03:14:43.313Z,13.20
2023-03-30T03:17:10.323Z,13.20
2023-03-30T03:19:37.363Z,13.20
2023-03-30T03:22:04.325Z,13.10
2023-03-30T03:24:34.033Z,13.10
2023-03-30T03:27:01.175Z,13.10
2023-03-30T03:29:28.130Z,13.10
2023-03-30T03:31:55.165Z,13.10
2023-03-30T03:34:22.302Z,13.00
2023-03-30T03:36:53.544Z,13.00
2023-03-30T03:39:20.818Z,13.00
2023-03-30T03:41:47.763Z,13.00
2023-03-30T03:44:14.815Z,13.00
2023-03-30T03:46:42.173Z,13.00
2023-03-30T03:49:09.723Z,13.00
2023-03-30T03:51:37.781Z,13.00
2023-03-30T03:54:05.185Z,13.00
2023-03-30T03:56:32.298Z,13.00
2023-03-30T03:59:03.064Z,12.90
2023-03-30T04:01:30.277Z,12.90
2023-03-30T04:03:57.544Z,12.90
2023-03-30T04:06:24.622Z,12.80
2023-03-30T04:08:51.660Z,12.80
2023-03-30T04:11:18.668Z,12.80
2023-03-30T04:13:45.841Z,12.70
2023-03-30T04:16:12.853Z,12.70
2023-03-30T04:18:42.160Z,12.70
2023-03-30T04:21:13.151Z,12.70
2023-03-30T04:23:45.765Z,12.70
2023-03-30T04:26:13.864Z,12.70
2023-03-30T04:28:40.834Z,12.70
2023-03-30T04:31:10.697Z,12.60
2023-03-30T04:33:47.018Z,12.60
2023-03-30T04:36:18.881Z,12.60
2023-03-30T04:38:58.789Z,12.60
2023-03-30T04:41:33.584Z,12.60
2023-03-30T04:44:06.516Z,12.60
2023-03-30T04:46:33.676Z,12.50
2023-03-30T04:49:00.933Z,12.50
2023-03-30T04:51:28.811Z,12.40
2023-03-30T04:53:55.987Z,12.30
2023-03-30T04:56:23.058Z,12.30
2023-03-30T04:58:50.018Z,12.30
2023-03-30T05:01:17.048Z,12.20
2023-03-30T05:03:44.069Z,12.20
2023-03-30T05:06:11.526Z,12.20
2023-03-30T05:08:39.997Z,12.20
2023-03-30T05:11:08.969Z,12.20
2023-03-30T05:13:36.027Z,12.20
2023-03-30T05:16:03.043Z,12.20
2023-03-30T05:18:30.062Z,12.20
2023-03-30T05:20:58.926Z,12.20
2023-03-30T05:23:26.328Z,12.20
2023-03-30T05:25:55.349Z,12.30
2023-03-30T05:28:23.056Z,12.20
2023-03-30T05:30:56.970Z,12.20
2023-03-30T05:33:24.394Z,12.20
2023-03-30T05:35:52.022Z,12.20
2023-03-30T05:38:19.054Z,12.20
2023-03-30T05:40:46.169Z,12.20
2023-03-30T05:43:13.150Z,12.20
2023-03-30T05:45:40.246Z,12.20
2023-03-30T05:48:07.723Z,12.20
2023-03-30T05:50:34.846Z,12.20
2023-03-30T05:53:20.538Z,12.20
2023-03-30T05:55:50.076Z,12.20
2023-03-30T05:58:18.127Z,12.20
2023-03-30T06:00:48.253Z,12.20
2023-03-30T06:03:15.433Z,12.20
2023-03-30T06:05:43.889Z,12.20
2023-03-30T06:08:12.325Z,12.20
2023-03-30T06:10:39.505Z,12.20
2023-03-30T06:13:06.698Z,12.20
2023-03-30T06:15:33.867Z,12.20
2023-03-30T06:18:04.068Z,12.20
2023-03-30T06:20:31.159Z,12.20
2023-03-30T06:22:58.173Z,12.20
2023-03-30T06:25:25.411Z,12.20
2023-03-30T06:27:52.389Z,12.20
2023-03-30T06:30:19.390Z,12.20
2023-03-30T06:32:46.637Z,12.20
2023-03-30T06:35:15.683Z,12.20
2023-03-30T06:37:43.053Z,12.20
2023-03-30T06:40:13.864Z,12.20
2023-03-30T06:42:42.026Z,12.20
2023-03-30T06:45:09.354Z,12.20
2023-03-30T06:47:37.129Z,12.20
2023-03-30T06:50:05.669Z,12.30
2023-03-30T06:52:36.953Z,12.30
2023-03-30T06:55:05.214Z,12.30
2023-03-30T06:57:32.490Z,12.40
2023-03-30T06:59:59.656Z,12.40
2023-03-30T07:02:26.885Z,12.50
2023-03-30T07:04:53.927Z,12.60
2023-03-30T07:07:21.180Z,12.80
2023-03-30T07:09:48.150Z,12.90
2023-03-30T07:12:15.093Z,13.10
2023-03-30T07:14:42.103Z,13.30
2023-03-30T07:17:09.283Z,13.60
2023-03-30T07:19:36.909Z,13.70
2023-03-30T07:22:04.283Z,13.90
2023-03-30T07:24:31.557Z,14.00
2023-03-30T07:26:58.559Z,14.10
2023-03-30T07:29:27.206Z,14.20
2023-03-30T07:31:56.531Z,14.20
2023-03-30T07:34:24.091Z,14.40
2023-03-30T07:36:51.153Z,14.50
2023-03-30T07:39:18.624Z,14.50
2023-03-30T07:41:45.637Z,14.60
2023-03-30T07:44:12.684Z,14.70
2023-03-30T07:46:39.749Z,14.70
2023-03-30T07:49:06.941Z,14.50
2023-03-30T07:51:34.708Z,14.40
2023-03-30T07:54:01.731Z,14.20
2023-03-30T07:56:28.692Z,14.10
2023-03-30T07:58:55.950Z,13.90
2023-03-30T08:01:22.854Z,13.80
2023-03-30T08:03:49.843Z,14.20
2023-03-30T08:06:16.947Z,14.80
2023-03-30T08:08:43.922Z,15.60
2023-03-30T08:11:11.409Z,16.20
2023-03-30T08:13:38.528Z,16.20
2023-03-30T08:16:06.260Z,16.10
2023-03-30T08:18:33.268Z,15.90
2023-03-30T08:21:00.343Z,15.70
2023-03-30T08:23:27.349Z,15.40
2023-03-30T08:25:57.756Z,15.00
2023-03-30T08:28:25.130Z,15.10
2023-03-30T08:30:53.230Z,15.70
2023-03-30T08:33:20.651Z,16.60
2023-03-30T08:35:48.252Z,17.00
2023-03-30T08:38:19.501Z,16.90
2023-03-30T08:40:50.706Z,17.20
2023-03-30T08:43:56.120Z,17.70
2023-03-30T08:46:23.382Z,18.50
2023-03-30T08:48:52.014Z,19.10
2023-03-30T08:51:29.209Z,19.80
2023-03-30T08:54:07.290Z,19.70
2023-03-30T08:57:05.762Z,19.30
2023-03-30T08:59:51.722Z,18.70
2023-03-30T09:02:26.602Z,17.90
2023-03-30T09:05:22.705Z,17.30
2023-03-30T09:08:09.610Z,17.10
2023-03-30T09:10:41.733Z,17.00
2023-03-30T09:13:14.037Z,17.20
2023-03-30T09:15:57.875Z,17.50
2023-03-30T09:18:32.444Z,18.10
2023-03-30T09:21:02.416Z,18.50
2023-03-30T09:23:31.471Z,18.50
2023-03-30T09:26:18.449Z,18.40
2023-03-30T09:29:10.788Z,18.80
2023-03-30T09:31:49.545Z,19.20
2023-03-30T09:34:22.381Z,19.70
2023-03-30T09:36:52.557Z,20.30
2023-03-30T09:39:22.440Z,20.60
2023-03-30T09:42:24.752Z,20.90
2023-03-30T09:45:27.641Z,20.90
2023-03-30T09:47:55.040Z,20.90
2023-03-30T09:50:26.861Z,21.20
2023-03-30T09:53:04.265Z,20.40
2023-03-30T09:55:32.858Z,19.50
2023-03-30T09:58:14.833Z,19.10
2023-03-30T10:00:41.880Z,19.40
2023-03-30T10:03:18.651Z,19.90
2023-03-30T10:05:45.808Z,20.40
2023-03-30T10:08:24.932Z,20.40
2023-03-30T10:10:56.904Z,20.90
2023-03-30T10:13:32.656Z,21.20
2023-03-30T10:16:08.481Z,21.20
2023-03-30T10:18:41.823Z,21.10
2023-03-30T10:21:17.598Z,20.90
2023-03-30T10:23:46.889Z,20.80
2023-03-30T10:26:20.753Z,20.70
2023-03-30T10:28:57.690Z,20.30
2023-03-30T10:31:28.076Z,20.10
2023-03-30T10:34:01.775Z,19.90
2023-03-30T10:36:40.394Z,19.80
2023-03-30T10:39:34.263Z,20.00
2023-03-30T10:42:04.279Z,19.90
2023-03-30T10:44:34.500Z,19.90
2023-03-30T10:47:24.588Z,20.30
2023-03-30T10:50:10.028Z,20.70
2023-03-30T10:52:58.001Z,20.90
2023-03-30T10:55:50.250Z,20.80
2023-03-30T10:58:45.192Z,20.10
2023-03-30T11:01:49.156Z,19.50
2023-03-30T11:04:37.020Z,19.40
2023-03-30T11:07:08.008Z,19.40
2023-03-30T11:09:40.090Z,19.40
2023-03-30T11:12:20.740Z,19.00
2023-03-30T11:14:56.554Z,19.00
2023-03-30T11:17:29.594Z,19.20
2023-03-30T11:19:58.398Z,19.10
2023-03-30T11:23:01.633Z,19.10
2023-03-30T11:25:39.702Z,18.80
2023-03-30T11:28:24.680Z,18.20
2023-03-30T11:30:56.671Z,18.00
2023-03-30T11:33:36.579Z,17.80
2023-03-30T11:36:19.027Z,17.80
2023-03-30T11:38:58.905Z,17.90
2023-03-30T11:41:35.127Z,18.00
2023-03-30T11:44:02.091Z,17.90
2023-03-30T11:46:54.482Z,18.00
2023-03-30T11:49:36.897Z,18.50
2023-03-30T11:52:45.810Z,19.00
2023-03-30T11:55:29.680Z,19.20
2023-03-30T11:58:31.636Z,19.40
2023-03-30T12:01:14.468Z,19.40
2023-03-30T12:03:47.458Z,19.40
2023-03-30T12:06:34.555Z,19.60
2023-03-30T12:09:17.092Z,19.60
2023-03-30T12:12:18.061Z,19.40
2023-03-30T12:15:04.257Z,19.40
2023-03-30T12:17:37.022Z,19.60
2023-03-30T12:20:10.157Z,19.50
2023-03-30T12:23:20.702Z,19.50
2023-03-30T12:26:10.154Z,19.50
2023-03-30T12:32:02.801Z,19.10
2023-03-30T12:34:34.980Z,19.10
2023-03-30T12:37:21.313Z,18.90
2023-03-30T12:40:14.637Z,18.90
2023-03-30T12:43:01.165Z,19.20
2023-03-30T12:45:35.534Z,19.30
2023-03-30T12:48:17.559Z,19.10
2023-03-30T12:51:01.714Z,19.10
2023-03-30T12:53:50.095Z,19.10
2023-03-30T12:56:35.188Z,19.30
2023-03-30T12:59:09.108Z,19.20
2023-03-30T13:02:01.137Z,19.20
2023-03-30T13:04:35.099Z,19.30
2023-03-30T13:07:24.048Z,19.30
2023-03-30T13:09:54.124Z,19.20
2023-03-30T13:12:27.433Z,19.20
2023-03-30T13:15:19.364Z,19.20
2023-03-30T13:17:57.229Z,19.20
2023-03-30T13:20:50.547Z,19.20
2023-03-30T13:23:20.596Z,19.20
2023-03-30T13:29:07.987Z,19.00
2023-03-30T13:31:36.071Z,19.20
2023-03-30T13:34:51.677Z,19.30
2023-03-30T13:37:44.941Z,19.40
2023-03-30T13:40:48.791Z,19.20
2023-03-30T13:43:58.910Z,19.10
2023-03-30T13:47:13.469Z,18.80
2023-03-30T13:50:01.179Z,18.60
2023-03-30T13:52:38.670Z,18.80
2023-03-30T13:55:16.764Z,18.80
2023-03-30T13:57:45.035Z,19.00
2023-03-30T14:00:47.249Z,18.80
2023-03-30T14:03:35.512Z,18.70
2023-03-30T14:06:07.783Z,18.60
2023-03-30T14:08:38.219Z,18.50
2023-03-30T14:11:19.109Z,18.30
2023-03-30T14:13:50.811Z,18.20
2023-03-30T14:16:31.703Z,18.10
2023-03-30T14:19:29.397Z,17.90
2023-03-30T14:22:10.210Z,17.80
2023-03-30T14:24:37.285Z,17.70
2023-03-30T14:27:16.272Z,17.70
2023-03-30T14:29:48.315Z,17.80
2023-03-30T14:32:16.874Z,17.90
2023-03-30T14:34:48.759Z,18.10
2023-03-30T14:37:17.714Z,18.20
2023-03-30T14:39:50.979Z,18.10
2023-03-30T14:42:21.894Z,18.00
2023-03-30T14:44:51.840Z,18.00
2023-03-30T14:47:27.763Z,18.00
2023-03-30T14:50:02.148Z,18.00
2023-03-30T14:52:38.945Z,17.90
2023-03-30T14:55:10.419Z,17.80
2023-03-30T14:57:41.999Z,17.80
2023-03-30T15:00:23.032Z,17.70
2023-03-30T15:02:57.045Z,17.50
2023-03-30T15:05:28.538Z,17.40
2023-03-30T15:07:55.912Z,17.50
2023-03-30T15:10:43.229Z,17.50
2023-03-30T15:13:17.503Z,17.70
2023-03-30T15:15:44.559Z,17.80
2023-03-30T15:18:20.430Z,17.70
2023-03-30T15:20:48.166Z,17.80
2023-03-30T15:23:16.498Z,17.60
2023-03-30T15:25:44.506Z,17.60
2023-03-30T15:28:20.888Z,17.50
2023-03-30T15:30:54.325Z,17.50
2023-03-30T15:33:36.011Z,17.50
2023-03-30T15:36:11.494Z,17.40
2023-03-30T15:38:58.916Z,17.40
2023-03-30T15:41:47.219Z,17.40
2023-03-30T15:44:19.350Z,17.40
2023-03-30T15:46:48.903Z,17.40
2023-03-30T15:49:23.448Z,17.30
2023-03-30T15:51:58.232Z,17.40
2023-03-30T15:54:38.732Z,17.30
2023-03-30T15:57:10.071Z,17.40
2023-03-30T15:59:50.532Z,17.40
2023-03-30T16:02:39.957Z,17.50
2023-03-30T16:05:17.298Z,17.40
2023-03-30T16:07:44.455Z,17.30
2023-03-30T16:10:24.647Z,17.20
2023-03-30T16:12:53.589Z,17.20
2023-03-30T16:15:26.329Z,17.10
2023-03-30T16:17:53.322Z,17.00
2023-03-30T16:20:26.297Z,17.00
2023-03-30T16:22:53.313Z,16.90
2023-03-30T16:25:26.026Z,16.80
2023-03-30T16:28:01.520Z,16.70
2023-03-30T16:30:34.959Z,16.60
2023-03-30T16:33:02.912Z,16.50
2023-03-30T16:35:30.550Z,16.50
2023-03-30T16:37:57.918Z,16.40
2023-03-30T16:40:27.984Z,16.30
2023-03-30T16:42:55.003Z,16.30
2023-03-30T16:45:21.948Z,16.30
2023-03-30T16:47:48.950Z,16.30
2023-03-30T16:50:27.642Z,16.20
2023-03-30T16:52:54.642Z,16.10
2023-03-30T16:55:21.585Z,16.00
2023-03-30T16:57:48.601Z,15.90
2023-03-30T17:00:26.486Z,15.80
2023-03-30T17:02:53.556Z,15.80
2023-03-30T17:05:20.601Z,15.70
2023-03-30T17:07:47.745Z,15.60
2023-03-30T17:10:18.336Z,15.50
2023-03-30T17:12:45.329Z,15.40
2023-03-30T17:15:12.817Z,15.40
2023-03-30T17:17:39.860Z,15.30
2023-03-30T17:20:41.006Z,15.30
2023-03-30T17:23:10.379Z,15.30
2023-03-30T17:25:40.000Z,15.20
2023-03-30T17:28:10.265Z,15.10
2023-03-30T17:30:42.090Z,15.00
2023-03-30T17:33:10.918Z,15.00
2023-03-30T17:35:38.987Z,14.90
2023-03-30T17:38:09.930Z,14.90
2023-03-30T17:40:40.229Z,14.90
2023-03-30T17:43:08.022Z,14.90
2023-03-30T17:45:35.856Z,14.90
2023-03-30T17:48:03.944Z,14.90
2023-03-30T17:50:36.660Z,14.90
2023-03-30T17:53:04.132Z,14.80
2023-03-30T17:55:33.147Z,14.80
2023-03-30T17:58:00.609Z,14.70
2023-03-30T18:00:28.706Z,14.60
2023-03-30T18:02:56.411Z,14.50
2023-03-30T18:05:26.395Z,14.40
2023-03-30T18:07:53.927Z,14.30
2023-03-30T18:10:28.361Z,14.30
2023-03-30T18:12:55.764Z,14.20
2023-03-30T18:15:25.683Z,14.20
2023-03-30T18:17:52.959Z,14.10
2023-03-30T18:20:26.981Z,14.00
2023-03-30T18:22:54.045Z,14.00
2023-03-30T18:25:29.772Z,14.00
2023-03-30T18:27:59.660Z,14.00
2023-03-30T18:30:28.503Z,13.90
2023-03-30T18:32:56.442Z,13.90
2023-03-30T18:35:29.729Z,13.90
2023-03-30T18:37:57.903Z,13.90
2023-03-30T18:40:39.060Z,13.80
2023-03-30T18:43:06.585Z,13.70
2023-03-30T18:45:37.768Z,13.60
2023-03-30T18:48:07.030Z,13.60
2023-03-30T18:50:40.083Z,13.50
2023-03-30T18:53:09.497Z,13.50
2023-03-30T18:55:38.844Z,13.40
2023-03-30T18:58:11.862Z,13.40
2023-03-30T19:00:38.816Z,13.30
2023-03-30T19:03:05.948Z,13.30
2023-03-30T19:05:34.213Z,13.20
2023-03-30T19:08:01.440Z,13.20
2023-03-30T19:10:33.303Z,13.10
2023-03-30T19:13:00.507Z,13.10
2023-03-30T19:15:29.872Z,13.10
2023-03-30T19:17:57.795Z,13.10
2023-03-30T19:20:27.386Z,13.00
2023-03-30T19:22:54.642Z,13.00
2023-03-30T19:25:23.712Z,13.00
2023-03-30T19:30:27.345Z,13.00
2023-03-30T19:33:00.271Z,13.00
2023-03-30T19:35:27.435Z,13.00
2023-03-30T19:37:55.451Z,12.90
2023-03-30T19:40:23.504Z,12.90
2023-03-30T19:42:50.982Z,12.80
2023-03-30T19:45:20.479Z,12.80
2023-03-30T19:47:48.623Z,12.80
2023-03-30T19:50:18.642Z,12.70
2023-03-30T19:52:48.876Z,12.70
2023-03-30T19:55:17.071Z,12.70
2023-03-30T19:57:44.348Z,12.60
2023-03-30T20:00:13.159Z,12.60
2023-03-30T20:02:41.275Z,12.60
2023-03-30T20:05:13.036Z,12.50
2023-03-30T20:07:42.397Z,12.50
2023-03-30T20:10:12.689Z,12.50
2023-03-30T20:12:39.791Z,12.50
2023-03-30T20:15:08.612Z,12.40
2023-03-30T20:17:36.995Z,12.40
2023-03-30T20:20:08.904Z,12.40
2023-03-30T20:22:37.670Z,12.40
2023-03-30T20:25:07.575Z,12.30
2023-03-30T20:27:35.412Z,12.30
2023-03-30T20:30:04.490Z,12.30
2023-03-30T20:32:31.898Z,12.30
2023-03-30T20:34:58.943Z,12.30
2023-03-30T20:37:26.010Z,12.20
2023-03-30T20:39:52.990Z,12.20
2023-03-30T20:42:26.488Z,12.20
2023-03-30T20:44:53.732Z,12.20
2023-03-30T20:47:26.186Z,12.20
2023-03-30T20:49:55.936Z,12.20
2023-03-30T20:52:23.955Z,12.20
2023-03-30T20:54:52.525Z,12.30
2023-03-30T20:57:20.733Z,12.30
2023-03-30T20:59:48.322Z,12.30
2023-03-30T21:02:16.448Z,12.30
2023-03-30T21:04:44.607Z,12.30
2023-03-30T21:07:12.396Z,12.30
2023-03-30T21:09:40.098Z,12.30
2023-03-30T21:12:09.785Z,12.30
2023-03-30T21:14:36.846Z,12.30
2023-03-30T21:17:04.035Z,12.30
2023-03-30T21:19:31.287Z,12.40
2023-03-30T21:21:58.389Z,12.40
2023-03-30T21:24:25.452Z,12.40
2023-03-30T21:26:52.527Z,12.40
2023-03-30T21:29:19.448Z,12.50
2023-03-30T21:31:46.378Z,12.50
2023-03-30T21:34:13.602Z,12.50
2023-03-30T21:36:40.807Z,12.50
2023-03-30T21:39:07.864Z,12.50
2023-03-30T21:41:34.969Z,12.50
2023-03-30T21:44:02.037Z,12.50
2023-03-30T21:46:29.605Z,12.40
2023-03-30T21:48:56.819Z,12.40
2023-03-30T21:51:27.503Z,12.40
2023-03-30T21:53:55.655Z,12.40
2023-03-30T21:56:26.040Z,12.40
2023-03-30T21:58:54.064Z,12.30
2023-03-30T22:01:24.183Z,12.30
2023-03-30T22:03:52.116Z,12.30
2023-03-30T22:06:19.803Z,12.30
2023-03-30T22:08:47.147Z,12.30
2023-03-30T22:11:20.194Z,12.30
2023-03-30T22:13:48.673Z,12.30
2023-03-30T22:16:19.533Z,12.20
2023-03-30T22:18:47.076Z,12.20
2023-03-30T22:21:24.562Z,12.10
2023-03-30T22:23:52.950Z,12.10
2023-03-30T22:26:19.908Z,12.10
2023-03-30T22:28:47.193Z,12.10
2023-03-30T22:31:15.661Z,12.10
2023-03-30T22:33:43.179Z,12.10
2023-03-30T22:36:19.812Z,12.10
2023-03-30T22:38:48.292Z,12.10
2023-03-30T22:41:15.848Z,12.10
2023-03-30T22:43:42.927Z,12.10
2023-03-30T22:46:10.210Z,12.10
2023-03-30T22:48:41.510Z,12.20
2023-03-30T22:51:09.303Z,12.20
2023-03-30T22:53:36.576Z,12.20
2023-03-30T22:56:03.729Z,12.20
2023-03-30T22:58:30.890Z,12.20
2023-03-30T23:01:03.802Z,12.20
2023-03-30T23:03:30.855Z,12.20
2023-03-30T23:06:01.800Z,12.20
2023-03-30T23:08:29.993Z,12.20
2023-03-30T23:11:04.660Z,12.30
2023-03-30T23:13:38.401Z,12.30
2023-03-30T23:16:07.207Z,12.30
2023-03-30T23:18:35.110Z,12.40
2023-03-30T23:21:06.321Z,12.40
2023-03-30T23:23:35.600Z,12.40
2023-03-30T23:26:09.040Z,12.50
2023-03-30T23:28:42.288Z,12.50
2023-03-30T23:31:17.917Z,12.50
2023-03-30T23:33:45.607Z,12.60
2023-03-30T23:36:17.356Z,12.50
2023-03-30T23:38:44.694Z,12.50
2023-03-30T23:41:17.377Z,12.50
2023-03-30T23:43:44.768Z,12.50
2023-03-30T23:46:12.601Z,12.40
2023-03-30T23:48:40.527Z,12.40
2023-03-30T23:51:07.624Z,12.40
2023-03-30T23:53:34.925Z,12.40
2023-03-30T23:56:06.355Z,12.40
2023-03-30T23:58:33.747Z,12.40
